createdAt,value
2019-02-20T00:02:12.202Z,81.13
2019-02-20T00:04:40.626Z,81.63
2019-02-20T00:07:09.888Z,81.75
2019-02-20T00:09:39.279Z,81.52
2019-02-20T00:12:08.009Z,81.49
2019-02-20T00:14:37.470Z,81.15
2019-02-20T00:17:06.033Z,81.38
2019-02-20T00:19:34.740Z,81.53
2019-02-20T00:22:03.630Z,81.80
2019-02-20T00:24:32.215Z,82.04
2019-02-20T00:27:01.409Z,82.39
2019-02-20T00:29:30.815Z,82.16
2019-02-20T00:31:59.194Z,81.58
2019-02-20T00:34:27.883Z,80.84
2019-02-20T00:39:52.430Z,81.28
2019-02-20T00:42:19.842Z,81.69
2019-02-20T00:45:05.714Z,81.41
2019-02-20T00:47:42.919Z,80.77
2019-02-20T00:50:11.354Z,80.76
2019-02-20T00:53:01.253Z,81.77
2019-02-20T00:55:28.622Z,81.81
2019-02-20T00:57:55.961Z,81.05
2019-02-20T01:00:23.670Z,80.43
2019-02-20T01:02:51.111Z,80.51
2019-02-20T01:05:18.463Z,81.62
2019-02-20T01:07:45.862Z,82.44
2019-02-20T01:10:13.200Z,82.26
2019-02-20T01:12:40.563Z,81.90
2019-02-20T01:15:08.442Z,82.20
2019-02-20T01:17:35.782Z,82.32
2019-02-20T01:20:03.540Z,81.53
2019-02-20T01:22:30.921Z,81.26
2019-02-20T01:24:58.299Z,80.91
2019-02-20T01:27:25.635Z,80.87
2019-02-20T01:29:53.025Z,81.53
2019-02-20T01:32:20.374Z,81.99
2019-02-20T01:34:47.719Z,82.85
2019-02-20T01:37:15.108Z,82.97
2019-02-20T01:39:42.484Z,83.05
2019-02-20T01:42:09.860Z,83.06
2019-02-20T01:44:37.221Z,82.48
2019-02-20T01:47:04.581Z,82.40
2019-02-20T01:49:31.944Z,82.32
2019-02-20T01:51:59.459Z,82.34
2019-02-20T01:54:26.836Z,82.22
2019-02-20T01:56:54.179Z,81.96
2019-02-20T01:59:21.630Z,82.32
2019-02-20T02:01:48.979Z,82.33
2019-02-20T02:04:16.369Z,82.23
2019-02-20T02:06:43.779Z,82.50
2019-02-20T02:09:11.099Z,82.03
2019-02-20T02:11:38.513Z,81.63
2019-02-20T02:14:05.884Z,81.91
2019-02-20T02:16:33.219Z,82.12
2019-02-20T02:19:00.559Z,81.62
2019-02-20T02:21:27.940Z,82.09
2019-02-20T02:23:55.288Z,82.67
2019-02-20T02:26:22.647Z,82.50
2019-02-20T02:28:50.039Z,82.68
2019-02-20T02:31:17.400Z,83.12
2019-02-20T02:33:44.744Z,83.10
2019-02-20T02:36:12.121Z,82.45
2019-02-20T02:38:39.440Z,82.18
2019-02-20T02:41:06.824Z,82.55
2019-02-20T02:43:34.806Z,82.66
2019-02-20T02:46:02.142Z,82.81
2019-02-20T02:48:29.519Z,83.13
2019-02-20T02:50:56.861Z,83.11
2019-02-20T02:53:30.765Z,82.52
2019-02-20T02:55:53.499Z,82.38
2019-02-20T02:58:20.864Z,83.00
2019-02-20T03:00:48.242Z,83.64
2019-02-20T03:03:15.623Z,83.59
2019-02-20T03:05:43.363Z,83.46
2019-02-20T03:08:10.681Z,82.80
2019-02-20T03:10:38.067Z,82.93
2019-02-20T03:13:05.487Z,83.29
2019-02-20T03:15:32.819Z,83.18
2019-02-20T03:18:00.341Z,83.15
2019-02-20T03:20:27.742Z,82.87
2019-02-20T03:22:55.168Z,82.15
2019-02-20T03:25:22.520Z,81.58
2019-02-20T03:27:49.902Z,82.17
2019-02-20T03:30:17.304Z,83.06
2019-02-20T03:32:44.665Z,83.48
2019-02-20T03:35:12.020Z,83.58
2019-02-20T03:37:39.436Z,83.24
2019-02-20T03:40:06.910Z,82.76
2019-02-20T03:42:34.242Z,83.14
2019-02-20T03:45:01.641Z,81.79
2019-02-20T03:47:28.983Z,82.21
2019-02-20T03:49:56.381Z,82.89
2019-02-20T03:52:23.722Z,82.08
2019-02-20T03:54:51.081Z,82.58
2019-02-20T03:57:18.505Z,83.51
2019-02-20T03:59:45.882Z,83.54
2019-02-20T04:02:13.262Z,83.49
2019-02-20T04:04:40.638Z,83.97
2019-02-20T04:07:08.002Z,84.04
2019-02-20T04:09:35.351Z,83.87
2019-02-20T04:12:02.684Z,83.79
2019-02-20T04:14:30.027Z,82.79
2019-02-20T04:16:57.403Z,82.78
2019-02-20T04:19:24.725Z,82.88
2019-02-20T04:21:52.086Z,83.91
2019-02-20T04:24:19.483Z,83.97
2019-02-20T04:26:46.822Z,83.86
2019-02-20T04:29:14.184Z,82.98
2019-02-20T04:31:42.204Z,82.89
2019-02-20T04:34:09.577Z,83.57
2019-02-20T04:36:37.342Z,84.14
2019-02-20T04:39:05.717Z,84.14
2019-02-20T04:41:33.104Z,84.09
2019-02-20T04:44:00.478Z,84.07
2019-02-20T04:46:27.792Z,83.67
2019-02-20T04:48:55.124Z,83.81
2019-02-20T04:51:22.484Z,84.05
2019-02-20T04:53:49.902Z,83.91
2019-02-20T04:56:17.249Z,83.82
2019-02-20T04:58:46.262Z,83.43
2019-02-20T05:01:13.690Z,83.64
2019-02-20T05:03:41.036Z,84.32
2019-02-20T05:06:08.413Z,84.01
2019-02-20T05:08:35.815Z,83.82
2019-02-20T05:11:03.136Z,83.38
2019-02-20T05:13:30.663Z,83.97
2019-02-20T05:15:58.022Z,84.50
2019-02-20T05:18:25.384Z,84.69
2019-02-20T05:20:52.765Z,84.66
2019-02-20T05:23:20.147Z,84.51
2019-02-20T05:25:47.505Z,84.06
2019-02-20T05:28:14.928Z,84.07
2019-02-20T05:30:42.236Z,84.38
2019-02-20T05:33:09.623Z,84.50
2019-02-20T05:35:36.984Z,84.19
2019-02-20T05:38:04.322Z,83.58
2019-02-20T05:40:31.708Z,83.63
2019-02-20T05:42:59.066Z,83.73
2019-02-20T05:45:26.404Z,83.43
2019-02-20T05:47:53.816Z,83.86
2019-02-20T05:50:21.164Z,84.10
2019-02-20T05:52:48.507Z,82.75
2019-02-20T05:55:15.906Z,82.87
2019-02-20T05:57:43.588Z,83.28
2019-02-20T06:00:11.347Z,83.78
2019-02-20T06:02:38.727Z,83.82
2019-02-20T06:05:06.189Z,83.82
2019-02-20T06:07:33.615Z,85.05
2019-02-20T06:10:01.000Z,85.05
2019-02-20T06:12:28.339Z,84.98
2019-02-20T06:14:55.809Z,84.77
2019-02-20T06:17:23.159Z,84.38
2019-02-20T06:19:50.506Z,84.05
2019-02-20T06:22:17.880Z,84.48
2019-02-20T06:24:45.248Z,84.23
2019-02-20T06:27:12.647Z,84.37
2019-02-20T06:29:40.026Z,84.36
2019-02-20T06:32:07.400Z,84.34
2019-02-20T06:34:34.782Z,83.93
2019-02-20T06:37:02.162Z,83.37
2019-02-20T06:39:29.507Z,83.02
2019-02-20T06:41:56.907Z,83.46
2019-02-20T06:44:24.672Z,83.61
2019-02-20T06:46:52.076Z,83.60
2019-02-20T06:49:19.422Z,83.06
2019-02-20T06:51:46.841Z,83.01
2019-02-20T06:54:17.074Z,83.56
2019-02-20T06:56:44.464Z,83.54
2019-02-20T06:59:11.802Z,81.81
2019-02-20T07:01:39.190Z,81.81
2019-02-20T07:04:06.801Z,82.39
2019-02-20T07:07:18.518Z,82.29
2019-02-20T07:10:14.830Z,82.39
2019-02-20T07:13:22.614Z,82.64
2019-02-20T07:16:04.182Z,82.27
2019-02-20T07:18:56.042Z,82.47
2019-02-20T07:22:29.370Z,82.12
2019-02-20T07:25:41.405Z,81.84
2019-02-20T07:28:33.721Z,82.28
2019-02-20T07:31:01.473Z,80.86
2019-02-20T07:33:28.806Z,81.02
2019-02-20T07:35:56.325Z,81.47
2019-02-20T07:38:23.688Z,81.25
2019-02-20T07:40:51.022Z,79.52
2019-02-20T07:43:18.363Z,78.80
2019-02-20T07:45:45.701Z,79.28
2019-02-20T07:48:13.082Z,80.23
2019-02-20T07:50:40.421Z,80.69
2019-02-20T07:53:10.043Z,80.44
2019-02-20T07:55:37.461Z,79.98
2019-02-20T07:58:04.802Z,80.84
2019-02-20T08:00:32.123Z,80.20
2019-02-20T08:02:59.539Z,79.46
2019-02-20T08:05:26.894Z,78.77
2019-02-20T08:07:54.289Z,78.44
2019-02-20T08:10:21.675Z,78.43
2019-02-20T08:12:49.060Z,78.94
2019-02-20T08:15:16.443Z,78.90
2019-02-20T08:17:43.824Z,78.84
2019-02-20T08:20:11.349Z,78.82
2019-02-20T08:22:38.742Z,79.48
2019-02-20T08:25:06.427Z,79.28
2019-02-20T08:27:33.746Z,78.37
2019-02-20T08:30:01.147Z,78.44
2019-02-20T08:32:28.990Z,78.15
2019-02-20T08:34:56.329Z,78.35
2019-02-20T08:37:23.665Z,78.23
2019-02-20T08:39:51.293Z,78.18
2019-02-20T08:42:18.684Z,77.49
2019-02-20T08:44:46.141Z,77.62
2019-02-20T08:47:13.482Z,77.79
2019-02-20T08:49:40.857Z,77.21
2019-02-20T08:52:08.210Z,77.83
2019-02-20T08:54:35.542Z,78.12
2019-02-20T08:57:02.921Z,77.38
2019-02-20T08:59:30.259Z,77.16
2019-02-20T09:01:57.660Z,78.05
2019-02-20T09:04:25.025Z,77.81
2019-02-20T09:06:52.344Z,77.71
2019-02-20T09:09:19.745Z,77.53
2019-02-20T09:11:47.083Z,76.54
2019-02-20T09:14:14.405Z,76.98
2019-02-20T09:16:41.801Z,76.24
2019-02-20T09:19:09.162Z,76.07
2019-02-20T09:21:36.557Z,74.91
2019-02-20T09:24:03.924Z,75.08
2019-02-20T09:26:31.265Z,73.87
2019-02-20T09:28:58.631Z,72.76
2019-02-20T09:31:26.024Z,72.20
2019-02-20T09:33:53.331Z,71.26
2019-02-20T09:36:20.680Z,72.14
2019-02-20T09:38:48.011Z,70.64
2019-02-20T09:41:15.351Z,71.40
2019-02-20T09:43:44.600Z,71.76
2019-02-20T09:46:11.943Z,71.03
2019-02-20T09:48:39.300Z,71.29
2019-02-20T09:51:06.941Z,70.76
2019-02-20T09:53:34.305Z,70.03
2019-02-20T09:56:02.035Z,69.50
2019-02-20T09:58:29.394Z,69.25
2019-02-20T10:00:56.827Z,68.89
2019-02-20T10:03:24.208Z,67.48
2019-02-20T10:05:51.614Z,67.45
2019-02-20T10:08:19.040Z,68.00
2019-02-20T10:10:46.427Z,66.56
2019-02-20T10:13:13.778Z,66.02
2019-02-20T10:15:41.223Z,64.73
2019-02-20T10:18:08.588Z,64.68
2019-02-20T10:20:35.919Z,64.31
2019-02-20T10:23:03.301Z,63.27
2019-02-20T10:25:30.650Z,63.43
2019-02-20T10:27:57.977Z,65.18
2019-02-20T10:30:25.576Z,65.16
2019-02-20T10:32:53.139Z,63.46
2019-02-20T10:35:20.731Z,64.07
2019-02-20T10:37:48.401Z,63.01
2019-02-20T10:40:15.961Z,63.19
2019-02-20T10:42:43.503Z,62.42
2019-02-20T10:45:11.354Z,62.02
2019-02-20T10:47:38.859Z,60.33
2019-02-20T10:50:06.793Z,60.73
2019-02-20T10:52:34.302Z,61.16
2019-02-20T10:55:01.644Z,62.92
2019-02-20T10:57:29.000Z,64.45
2019-02-20T10:59:56.405Z,65.49
2019-02-20T11:02:23.786Z,64.93
2019-02-20T11:04:51.247Z,65.21
2019-02-20T11:07:18.620Z,64.23
2019-02-20T11:09:46.365Z,64.30
2019-02-20T11:12:13.934Z,65.28
2019-02-20T11:14:41.275Z,66.56
2019-02-20T11:17:08.689Z,67.41
2019-02-20T11:19:39.132Z,67.34
2019-02-20T11:22:06.557Z,67.15
2019-02-20T11:24:33.940Z,66.70
2019-02-20T11:27:01.289Z,66.69
2019-02-20T11:29:28.641Z,66.39
2019-02-20T11:31:56.583Z,66.09
2019-02-20T11:34:24.131Z,65.75
2019-02-20T11:36:51.466Z,66.11
2019-02-20T11:39:18.835Z,65.61
2019-02-20T11:41:46.179Z,65.42
2019-02-20T11:44:20.781Z,65.78
2019-02-20T11:46:44.636Z,65.01
2019-02-20T11:49:12.185Z,65.08
2019-02-20T11:51:39.560Z,64.80
2019-02-20T11:54:06.946Z,64.05
2019-02-20T11:56:34.358Z,62.42
2019-02-20T11:59:01.721Z,61.12
2019-02-20T12:01:29.092Z,62.25
2019-02-20T12:03:56.476Z,61.02
2019-02-20T12:06:23.860Z,60.88
2019-02-20T12:08:51.194Z,60.40
2019-02-20T12:11:18.597Z,62.05
2019-02-20T12:13:45.994Z,60.47
2019-02-20T12:16:13.859Z,60.90
2019-02-20T12:18:41.243Z,61.04
2019-02-20T12:21:09.343Z,59.55
2019-02-20T12:23:37.066Z,59.82
2019-02-20T12:26:04.855Z,59.56
2019-02-20T12:28:32.205Z,59.68
2019-02-20T12:30:59.621Z,58.98
2019-02-20T12:33:26.943Z,57.77
2019-02-20T12:35:54.336Z,57.21
2019-02-20T12:38:21.909Z,57.77
2019-02-20T12:40:50.861Z,57.93
2019-02-20T12:43:18.407Z,57.88
2019-02-20T12:45:45.795Z,58.14
2019-02-20T12:48:13.178Z,58.72
2019-02-20T12:50:40.516Z,58.43
2019-02-20T12:53:07.882Z,58.18
2019-02-20T12:55:35.268Z,56.63
2019-02-20T12:58:02.739Z,57.67
2019-02-20T13:00:30.189Z,56.87
2019-02-20T13:02:57.633Z,56.43
2019-02-20T13:05:25.598Z,55.93
2019-02-20T13:07:53.061Z,55.61
2019-02-20T13:10:20.392Z,58.00
2019-02-20T13:12:47.739Z,59.01
2019-02-20T13:15:15.175Z,57.15
2019-02-20T13:17:42.567Z,54.72
2019-02-20T13:20:10.082Z,55.61
2019-02-20T13:22:37.522Z,55.45
2019-02-20T13:25:05.141Z,56.13
2019-02-20T13:27:32.561Z,56.26
2019-02-20T13:29:59.914Z,55.75
2019-02-20T13:32:27.259Z,56.60
2019-02-20T13:34:54.636Z,56.33
2019-02-20T13:37:22.043Z,57.49
2019-02-20T13:39:49.425Z,55.97
2019-02-20T13:42:17.074Z,56.33
2019-02-20T13:44:44.460Z,55.74
2019-02-20T13:47:11.822Z,53.84
2019-02-20T13:49:39.390Z,54.13
2019-02-20T13:52:06.811Z,53.05
2019-02-20T13:54:35.588Z,52.61
2019-02-20T13:57:04.050Z,54.02
2019-02-20T13:59:31.480Z,51.34
2019-02-20T14:01:58.969Z,52.12
2019-02-20T14:04:26.377Z,52.92
2019-02-20T14:06:54.344Z,54.49
2019-02-20T14:09:23.952Z,54.32
2019-02-20T14:11:51.312Z,54.73
2019-02-20T14:14:18.689Z,54.35
2019-02-20T14:16:46.107Z,54.09
2019-02-20T14:19:13.789Z,55.31
2019-02-20T14:21:41.292Z,55.03
2019-02-20T14:24:08.702Z,54.96
2019-02-20T14:26:36.349Z,56.91
2019-02-20T14:29:03.883Z,58.40
2019-02-20T14:31:31.360Z,57.80
2019-02-20T14:33:58.855Z,58.23
2019-02-20T14:36:26.592Z,60.90
2019-02-20T14:38:53.999Z,60.69
2019-02-20T14:41:21.505Z,61.21
2019-02-20T14:43:48.899Z,60.91
2019-02-20T14:46:16.307Z,60.69
2019-02-20T14:48:43.724Z,61.18
2019-02-20T14:51:11.143Z,61.57
2019-02-20T14:53:38.602Z,60.88
2019-02-20T14:56:06.225Z,60.27
2019-02-20T14:58:33.564Z,60.94
2019-02-20T15:01:00.962Z,61.79
2019-02-20T15:03:28.354Z,62.04
2019-02-20T15:05:55.830Z,62.37
2019-02-20T15:08:23.227Z,62.41
2019-02-20T15:10:50.739Z,63.56
2019-02-20T15:13:18.334Z,62.91
2019-02-20T15:15:47.388Z,62.72
2019-02-20T15:18:14.898Z,63.46
2019-02-20T15:20:43.225Z,63.74
2019-02-20T15:23:10.984Z,64.36
2019-02-20T15:25:38.902Z,64.28
2019-02-20T15:28:06.555Z,64.60
2019-02-20T15:30:34.493Z,64.25
2019-02-20T15:33:02.503Z,64.23
2019-02-20T15:35:30.243Z,64.67
2019-02-20T15:37:58.089Z,64.85
2019-02-20T15:40:26.019Z,65.29
2019-02-20T15:42:53.800Z,65.54
2019-02-20T15:45:21.729Z,65.05
2019-02-20T15:47:49.702Z,65.34
2019-02-20T15:50:17.610Z,65.20
2019-02-20T15:52:46.462Z,65.18
2019-02-20T15:55:14.400Z,65.80
2019-02-20T15:57:42.392Z,65.75
2019-02-20T16:00:11.795Z,66.27
2019-02-20T16:02:40.002Z,66.25
2019-02-20T16:05:07.970Z,65.63
2019-02-20T16:07:36.103Z,67.69
2019-02-20T16:10:06.035Z,67.24
2019-02-20T16:12:33.964Z,66.92
2019-02-20T16:15:01.780Z,67.76
2019-02-20T16:17:29.720Z,68.43
2019-02-20T16:19:57.394Z,67.67
2019-02-20T16:22:25.159Z,68.92
2019-02-20T16:24:53.080Z,70.79
2019-02-20T16:27:21.131Z,70.91
2019-02-20T16:29:57.955Z,69.04
2019-02-20T16:32:26.031Z,70.49
2019-02-20T16:34:53.739Z,71.56
2019-02-20T16:37:21.769Z,70.50
2019-02-20T16:39:49.828Z,69.77
2019-02-20T16:42:19.942Z,70.54
2019-02-20T16:44:49.241Z,72.11
2019-02-20T16:47:17.061Z,73.14
2019-02-20T16:49:45.218Z,73.06
2019-02-20T16:52:13.195Z,71.34
2019-02-20T16:54:41.101Z,73.72
2019-02-20T16:57:09.233Z,73.86
2019-02-20T16:59:37.090Z,72.98
2019-02-20T17:02:05.187Z,72.35
2019-02-20T17:04:33.196Z,73.17
2019-02-20T17:07:01.220Z,74.80
2019-02-20T17:09:29.226Z,74.52
2019-02-20T17:11:57.059Z,74.25
2019-02-20T17:14:24.962Z,75.69
2019-02-20T17:16:52.974Z,75.04
2019-02-20T17:19:20.954Z,76.02
2019-02-20T17:21:49.064Z,75.77
2019-02-20T17:24:17.021Z,74.46
2019-02-20T17:26:44.985Z,75.32
2019-02-20T17:29:12.925Z,73.73
2019-02-20T17:31:40.803Z,74.64
2019-02-20T17:34:08.737Z,75.46
2019-02-20T17:36:36.823Z,75.44
2019-02-20T17:39:07.378Z,74.79
2019-02-20T17:41:35.306Z,75.40
2019-02-20T17:44:03.414Z,75.62
2019-02-20T17:46:31.344Z,76.23
2019-02-20T17:48:59.326Z,75.69
2019-02-20T17:51:27.236Z,75.97
2019-02-20T17:53:55.155Z,76.17
2019-02-20T17:56:23.490Z,75.30
2019-02-20T17:58:51.438Z,75.54
2019-02-20T18:01:19.397Z,76.02
2019-02-20T18:03:48.205Z,76.16
2019-02-20T18:06:16.278Z,76.46
2019-02-20T18:08:44.346Z,75.50
2019-02-20T18:11:12.379Z,75.77
2019-02-20T18:13:40.276Z,76.28
2019-02-20T18:16:08.164Z,74.91
2019-02-20T18:18:36.446Z,74.51
2019-02-20T18:21:04.429Z,74.85
2019-02-20T18:23:33.445Z,75.04
2019-02-20T18:26:01.443Z,74.95
2019-02-20T18:28:29.483Z,75.50
2019-02-20T18:30:58.575Z,75.83
2019-02-20T18:33:26.637Z,75.39
2019-02-20T18:35:54.666Z,74.96
2019-02-20T18:38:22.781Z,75.75
2019-02-20T18:40:53.269Z,75.74
2019-02-20T18:43:21.300Z,76.20
2019-02-20T18:45:49.313Z,76.45
2019-02-20T18:48:18.889Z,76.65
2019-02-20T18:50:47.299Z,77.37
2019-02-20T18:53:15.292Z,75.62
2019-02-20T18:55:43.958Z,75.54
2019-02-20T18:58:12.023Z,75.97
2019-02-20T19:00:40.050Z,76.33
2019-02-20T19:03:08.153Z,76.08
2019-02-20T19:05:36.486Z,75.60
2019-02-20T19:08:34.359Z,75.13
2019-02-20T19:11:06.002Z,76.95
2019-02-20T19:14:01.388Z,76.31
2019-02-20T19:17:12.237Z,76.36
2019-02-20T19:20:03.959Z,76.96
2019-02-20T19:23:10.710Z,75.80
2019-02-20T19:26:17.303Z,76.28
2019-02-20T19:29:38.504Z,77.11
2019-02-20T19:32:40.865Z,78.04
2019-02-20T19:35:48.620Z,77.94
2019-02-20T19:39:00.525Z,78.92
2019-02-20T19:42:07.126Z,78.73
2019-02-20T19:45:24.689Z,78.64
2019-02-20T19:48:39.963Z,78.52
2019-02-20T19:51:39.434Z,78.49
2019-02-20T19:54:32.921Z,79.67
2019-02-20T19:57:36.704Z,79.92
2019-02-20T20:00:44.574Z,79.66
2019-02-20T20:03:47.643Z,78.65
2019-02-20T20:06:32.866Z,79.62
2019-02-20T20:09:40.536Z,79.70
2019-02-20T20:12:37.519Z,79.71
2019-02-20T20:15:33.660Z,80.27
2019-02-20T20:18:44.951Z,79.94
2019-02-20T20:21:39.114Z,80.39
2019-02-20T20:24:31.598Z,80.78
2019-02-20T20:27:22.225Z,80.80
2019-02-20T20:30:55.843Z,81.34
2019-02-20T20:34:20.086Z,81.55
2019-02-20T20:37:09.193Z,81.82
2019-02-20T20:40:14.283Z,81.99
2019-02-20T20:43:21.404Z,82.14
2019-02-20T20:46:15.089Z,81.19
2019-02-20T20:48:51.004Z,80.54
2019-02-20T20:52:00.820Z,80.76
2019-02-20T20:55:01.471Z,81.32
2019-02-20T20:58:02.169Z,81.31
2019-02-20T21:01:11.650Z,81.23
2019-02-20T21:03:55.017Z,80.59
2019-02-20T21:06:56.778Z,80.34
2019-02-20T21:10:03.827Z,80.49
2019-02-20T21:13:22.154Z,81.24
2019-02-20T21:16:13.254Z,81.25
2019-02-20T21:19:04.673Z,80.71
2019-02-20T21:22:12.649Z,81.79
2019-02-20T21:24:59.186Z,82.48
2019-02-20T21:27:54.690Z,82.40
2019-02-20T21:30:51.919Z,82.25
2019-02-20T21:34:01.052Z,82.34
2019-02-20T21:36:43.603Z,82.55
2019-02-20T21:39:34.042Z,82.21
2019-02-20T21:42:22.629Z,82.19
2019-02-20T21:45:02.537Z,82.50
2019-02-20T21:47:59.542Z,82.60
2019-02-20T21:51:07.954Z,82.49
2019-02-20T21:54:07.399Z,82.90
2019-02-20T21:57:15.879Z,82.07
2019-02-20T22:00:24.414Z,82.55
2019-02-20T22:03:42.358Z,82.85
2019-02-20T22:06:52.282Z,83.08
2019-02-20T22:09:57.712Z,83.14
2019-02-20T22:13:06.725Z,83.11
2019-02-20T22:15:46.955Z,83.18
2019-02-20T22:18:47.881Z,83.40
2019-02-20T22:22:07.143Z,83.00
2019-02-20T22:25:09.199Z,82.64
2019-02-20T22:28:14.217Z,82.69
2019-02-20T22:30:55.100Z,83.36
2019-02-20T22:33:46.921Z,82.83
2019-02-20T22:36:53.142Z,82.48
2019-02-20T22:39:48.479Z,82.47
2019-02-20T22:42:49.877Z,82.70
2019-02-20T22:45:52.592Z,82.54
2019-02-20T22:48:55.901Z,81.90
2019-02-20T22:52:03.541Z,81.88
2019-02-20T22:55:14.433Z,82.09
2019-02-20T22:58:04.939Z,82.62
2019-02-20T23:01:10.102Z,82.99
2019-02-20T23:04:02.942Z,83.48
2019-02-20T23:06:56.946Z,83.40
2019-02-20T23:09:52.817Z,83.71
2019-02-20T23:12:51.279Z,83.50
2019-02-20T23:15:18.732Z,83.16
2019-02-20T23:17:46.072Z,83.90
2019-02-20T23:20:13.448Z,83.72
2019-02-20T23:22:40.840Z,83.99
2019-02-20T23:25:08.182Z,83.79
2019-02-20T23:27:35.530Z,83.88
2019-02-20T23:30:12.522Z,84.13
2019-02-20T23:32:32.379Z,84.39
2019-02-20T23:34:59.702Z,84.24
2019-02-20T23:37:27.099Z,83.82
2019-02-20T23:39:54.440Z,84.01
2019-02-20T23:42:21.823Z,84.81
2019-02-20T23:44:49.182Z,84.87
2019-02-20T23:47:16.542Z,84.66
2019-02-20T23:49:43.919Z,84.41
2019-02-20T23:52:11.287Z,84.41
2019-02-20T23:54:38.642Z,85.04
2019-02-20T23:57:05.999Z,84.92
2019-02-20T23:59:33.331Z,84.60
